Time;durP1;ratioP1;P1;durP2;ratioP2;P2;SDS_P1;SDS_P2;PMS_P1;PMS_P2;Temp;Humidity;BMP_temperature;BMP_pressure;BME280_temperature;BME280_humidity;BME280_pressure;Samples;Min_cycle;Max_cycle;Signal;HPM_P1;HPM_P2
2022/10/30 00:00:27;;;;;;;25.05;10.65;;;;;;;;;;5019878;28;20140;-71
2022/10/30 00:02:53;;;;;;;25.67;9.77;;;;;;;;;;5032789;28;20036;-71
2022/10/30 00:05:19;;;;;;;25.50;10.75;;;;;;;;;;5036840;28;20034;-71
2022/10/30 00:07:49;;;;;;;28.55;12.52;;;;;;;;;;5024416;28;20029;-71
2022/10/30 00:10:15;;;;;;;28.40;11.85;;;;;;;;;;5019906;28;20032;-74
2022/10/30 00:12:41;;;;;;;26.92;12.00;;;;;;;;;;5028023;28;20482;-71
2022/10/30 00:15:08;;;;;;;21.45;10.80;;;;;;;;;;5025726;28;20033;-71
2022/10/30 00:17:34;;;;;;;26.95;9.93;;;;;;;;;;5015675;28;20018;-71
2022/10/30 00:20:00;;;;;;;20.95;10.60;;;;;;;;;;5025401;28;20053;-72
2022/10/30 00:22:26;;;;;;;25.48;11.02;;;;;;;;;;5032177;28;20034;-71
2022/10/30 00:24:52;;;;;;;21.25;11.02;;;;;;;;;;5029434;28;20037;-71
2022/10/30 00:27:18;;;;;;;23.90;12.25;;;;;;;;;;5014568;28;20123;-71
2022/10/30 00:29:44;;;;;;;22.95;10.35;;;;;;;;;;5032259;28;20057;-71
2022/10/30 00:32:10;;;;;;;22.05;11.23;;;;;;;;;;5028163;28;20465;-71
2022/10/30 00:34:36;;;;;;;29.67;10.88;;;;;;;;;;5029435;28;20099;-72
2022/10/30 00:37:02;;;;;;;33.90;10.88;;;;;;;;;;5017273;28;20033;-71
2022/10/30 00:39:28;;;;;;;26.58;10.90;;;;;;;;;;5033713;28;20032;-72
2022/10/30 00:41:54;;;;;;;21.50;11.80;;;;;;;;;;5007818;28;20457;-72
2022/10/30 00:44:39;;;;;;;22.58;10.52;;;;;;;;;;5033112;28;20065;-72
2022/10/30 00:47:25;;;;;;;26.25;11.38;;;;;;;;;;5020642;28;20025;-71
2022/10/30 00:49:51;;;;;;;24.98;10.75;;;;;;;;;;5025723;28;20033;-71
2022/10/30 00:52:19;;;;;;;23.95;10.73;;;;;;;;;;5024679;28;20041;-71
2022/10/30 00:54:45;;;;;;;31.33;10.13;;;;;;;;;;5030748;28;20032;-75
2022/10/30 00:57:11;;;;;;;27.25;10.88;;;;;;;;;;5028731;28;20045;-72
2022/10/30 00:59:37;;;;;;;20.55;10.13;;;;;;;;;;5036856;28;20486;-71
2022/10/30 01:02:04;;;;;;;23.17;11.63;;;;;;;;;;5017659;28;20084;-71
2022/10/30 01:04:32;;;;;;;26.38;11.32;;;;;;;;;;5032085;28;20043;-71
2022/10/30 01:06:58;;;;;;;24.85;10.60;;;;;;;;;;5020497;28;20060;-72
2022/10/30 01:09:24;;;;;;;28.20;11.18;;;;;;;;;;5046713;28;20474;-72
2022/10/30 01:11:50;;;;;;;19.13;11.27;;;;;;;;;;5035325;28;20496;-71
2022/10/30 01:14:18;;;;;;;27.42;11.80;;;;;;;;;;5031150;28;20116;-71
2022/10/30 01:16:44;;;;;;;25.35;11.35;;;;;;;;;;5010650;28;20026;-72
2022/10/30 01:19:13;;;;;;;23.13;11.02;;;;;;;;;;5024687;28;20049;-71
2022/10/30 01:21:42;;;;;;;23.20;11.15;;;;;;;;;;5026648;28;20456;-73
2022/10/30 01:24:20;;;;;;;26.73;11.45;;;;;;;;;;5030888;28;20048;-75
2022/10/30 01:26:50;;;;;;;25.17;10.70;;;;;;;;;;5028995;28;20036;-74
2022/10/30 01:29:19;;;;;;;21.92;10.48;;;;;;;;;;5013090;28;20080;-76
2022/10/30 01:31:45;;;;;;;44.78;20.15;;;;;;;;;;5026053;28;20552;-80
2022/10/30 01:34:14;;;;;;;29.13;12.27;;;;;;;;;;5025992;28;20038;-79
2022/10/30 01:36:45;;;;;;;22.02;11.63;;;;;;;;;;5026706;28;20113;-79
2022/10/30 01:39:18;;;;;;;22.73;11.70;;;;;;;;;;5027486;28;20517;-79
2022/10/30 01:41:44;;;;;;;24.40;11.02;;;;;;;;;;5026698;28;20022;-78
2022/10/30 01:44:22;;;;;;;24.00;11.15;;;;;;;;;;5022814;28;20034;-70
2022/10/30 01:46:48;;;;;;;24.48;10.65;;;;;;;;;;5027199;28;20037;-74
2022/10/30 01:49:25;;;;;;;20.25;10.75;;;;;;;;;;5021938;28;20502;-72
2022/10/30 01:52:03;;;;;;;27.70;9.57;;;;;;;;;;5030261;28;20038;-73
2022/10/30 01:54:32;;;;;;;27.67;11.63;;;;;;;;;;5025313;28;20130;-72
2022/10/30 01:57:04;;;;;;;20.70;11.63;;;;;;;;;;5025847;28;21993;-72
2022/10/30 01:59:30;;;;;;;22.88;11.23;;;;;;;;;;5036958;28;20525;-73
2022/10/30 02:01:57;;;;;;;22.65;11.55;;;;;;;;;;5029895;28;20113;-74
2022/10/30 02:04:23;;;;;;;28.20;11.68;;;;;;;;;;5022773;28;20046;-73
2022/10/30 02:06:49;;;;;;;23.35;12.05;;;;;;;;;;5017122;28;20394;-73
2022/10/30 02:09:15;;;;;;;28.40;11.55;;;;;;;;;;5023485;28;20033;-74
2022/10/30 02:11:42;;;;;;;23.73;10.73;;;;;;;;;;5033381;28;20382;-74
2022/10/30 02:14:09;;;;;;;23.65;10.68;;;;;;;;;;5030775;28;20056;-73
2022/10/30 02:16:37;;;;;;;26.63;11.55;;;;;;;;;;5025124;28;20029;-73
2022/10/30 02:19:05;;;;;;;25.77;11.68;;;;;;;;;;5011166;28;20466;-73
2022/10/30 02:21:31;;;;;;;27.70;11.95;;;;;;;;;;5020364;28;20017;-73
2022/10/30 02:23:57;;;;;;;21.55;10.45;;;;;;;;;;5027406;28;20477;-74
2022/10/30 02:26:23;;;;;;;21.70;11.65;;;;;;;;;;5030101;28;20116;-72
2022/10/30 02:28:51;;;;;;;30.08;11.00;;;;;;;;;;5023336;28;20121;-73
2022/10/30 02:31:18;;;;;;;24.88;11.90;;;;;;;;;;5020645;28;20025;-71
2022/10/30 02:33:47;;;;;;;29.08;12.88;;;;;;;;;;5031721;28;20113;-72
2022/10/30 02:36:16;;;;;;;25.55;11.90;;;;;;;;;;5021520;28;20069;-73
2022/10/30 02:38:42;;;;;;;25.35;10.90;;;;;;;;;;5020642;28;20034;-72
2022/10/30 02:41:09;;;;;;;25.75;11.32;;;;;;;;;;5028654;28;20030;-73
2022/10/30 02:43:35;;;;;;;27.15;11.90;;;;;;;;;;5026206;28;20104;-74
2022/10/30 02:46:01;;;;;;;24.05;11.68;;;;;;;;;;5022623;28;20040;-72
2022/10/30 02:48:27;;;;;;;23.33;12.48;;;;;;;;;;5014210;28;20120;-73
2022/10/30 02:50:58;;;;;;;28.95;12.18;;;;;;;;;;5022723;28;20116;-74
2022/10/30 02:53:24;;;;;;;26.67;12.35;;;;;;;;;;5031708;28;20036;-72
2022/10/30 02:55:50;;;;;;;27.40;12.27;;;;;;;;;;5029490;28;20087;-73
2022/10/30 02:58:16;;;;;;;25.45;14.90;;;;;;;;;;5025884;28;20030;-73
2022/10/30 03:00:42;;;;;;;20.27;12.48;;;;;;;;;;5025646;28;20042;-72
2022/10/30 03:03:08;;;;;;;32.70;11.85;;;;;;;;;;5027888;28;20428;-74
2022/10/30 03:05:34;;;;;;;21.90;13.07;;;;;;;;;;5019151;28;20041;-74
2022/10/30 03:08:00;;;;;;;27.98;11.77;;;;;;;;;;5026584;28;20108;-72
2022/10/30 03:10:26;;;;;;;22.60;13.40;;;;;;;;;;5027886;28;20414;-73
2022/10/30 03:12:52;;;;;;;32.28;12.57;;;;;;;;;;5020924;28;20045;-72
2022/10/30 03:15:18;;;;;;;32.45;12.02;;;;;;;;;;5029972;28;20030;-72
2022/10/30 03:17:44;;;;;;;32.75;12.20;;;;;;;;;;5023328;28;20478;-74
2022/10/30 03:20:10;;;;;;;29.88;13.57;;;;;;;;;;5026832;28;20061;-74
2022/10/30 03:22:36;;;;;;;25.67;12.75;;;;;;;;;;5028758;28;20042;-71
2022/10/30 03:25:02;;;;;;;26.77;12.98;;;;;;;;;;5019820;28;20055;-72
2022/10/30 03:27:28;;;;;;;30.48;13.27;;;;;;;;;;5020861;28;20392;-74
2022/10/30 03:29:54;;;;;;;32.00;12.73;;;;;;;;;;5018244;28;20041;-72
2022/10/30 03:32:20;;;;;;;31.95;13.30;;;;;;;;;;5027936;28;20104;-71
2022/10/30 03:34:46;;;;;;;30.92;12.95;;;;;;;;;;5023365;28;20038;-72
2022/10/30 03:37:12;;;;;;;30.15;12.35;;;;;;;;;;5028005;28;20498;-72
2022/10/30 03:39:38;;;;;;;28.67;14.00;;;;;;;;;;5022621;28;20029;-72
2022/10/30 03:42:04;;;;;;;35.33;13.43;;;;;;;;;;5028786;28;20402;-72
2022/10/30 03:44:30;;;;;;;22.45;12.18;;;;;;;;;;5028349;28;20033;-72
2022/10/30 03:46:57;;;;;;;21.17;12.02;;;;;;;;;;5032724;28;20029;-73
2022/10/30 03:49:23;;;;;;;30.33;13.20;;;;;;;;;;5010237;28;20532;-72
2022/10/30 03:51:49;;;;;;;26.85;13.13;;;;;;;;;;5030599;28;20057;-72
2022/10/30 03:54:15;;;;;;;23.73;12.48;;;;;;;;;;5024935;28;20386;-75
2022/10/30 03:56:41;;;;;;;28.85;13.00;;;;;;;;;;5011092;28;20867;-74
2022/10/30 03:59:07;;;;;;;26.90;14.77;;;;;;;;;;5026159;28;20028;-73
2022/10/30 04:01:33;;;;;;;36.22;13.57;;;;;;;;;;5026742;28;20375;-73
2022/10/30 04:03:59;;;;;;;28.75;13.00;;;;;;;;;;5027775;28;20424;-73
2022/10/30 04:06:25;;;;;;;32.05;12.75;;;;;;;;;;5016964;28;20440;-73
2022/10/30 04:08:53;;;;;;;29.77;13.90;;;;;;;;;;5026146;28;20655;-74
2022/10/30 04:11:19;;;;;;;31.45;13.80;;;;;;;;;;5021174;28;20034;-73
2022/10/30 04:13:45;;;;;;;25.50;13.43;;;;;;;;;;5031849;28;20033;-73
2022/10/30 04:16:11;;;;;;;25.08;13.88;;;;;;;;;;5028574;28;20037;-75
2022/10/30 04:18:37;;;;;;;31.60;13.85;;;;;;;;;;5032118;28;20026;-73
2022/10/30 04:21:04;;;;;;;36.33;15.30;;;;;;;;;;5032656;28;20454;-73
2022/10/30 04:23:30;;;;;;;28.10;13.90;;;;;;;;;;5024216;28;20042;-74
2022/10/30 04:25:56;;;;;;;30.92;12.85;;;;;;;;;;5015349;28;20108;-73
2022/10/30 04:28:22;;;;;;;34.92;14.15;;;;;;;;;;5029192;28;20482;-73
2022/10/30 04:30:48;;;;;;;33.53;14.60;;;;;;;;;;5029885;28;20029;-75
2022/10/30 04:33:14;;;;;;;30.50;13.20;;;;;;;;;;5026263;28;20045;-73
2022/10/30 04:35:41;;;;;;;27.23;13.93;;;;;;;;;;5031852;28;20037;-74
2022/10/30 04:38:09;;;;;;;28.88;13.23;;;;;;;;;;5026544;28;20025;-73
2022/10/30 04:40:36;;;;;;;32.15;14.55;;;;;;;;;;5017897;28;20072;-73
2022/10/30 04:43:03;;;;;;;29.63;14.05;;;;;;;;;;5031432;28;20030;-74
2022/10/30 04:45:29;;;;;;;25.38;14.00;;;;;;;;;;5023655;28;20375;-74
2022/10/30 04:48:11;;;;;;;24.00;13.15;;;;;;;;;;5010941;28;20038;-74
2022/10/30 04:50:37;;;;;;;27.48;12.85;;;;;;;;;;5026094;28;20038;-73
2022/10/30 04:53:05;;;;;;;32.60;13.88;;;;;;;;;;5015040;28;20037;-74
2022/10/30 04:55:31;;;;;;;30.27;14.13;;;;;;;;;;5026985;28;20028;-74
2022/10/30 04:57:58;;;;;;;26.50;13.43;;;;;;;;;;5026192;28;20031;-73
2022/10/30 05:00:24;;;;;;;23.05;12.43;;;;;;;;;;5023884;28;20047;-77
2022/10/30 05:02:50;;;;;;;28.73;13.35;;;;;;;;;;5022890;28;20033;-74
2022/10/30 05:05:17;;;;;;;30.00;14.30;;;;;;;;;;5009616;28;20486;-74
2022/10/30 05:07:43;;;;;;;28.10;14.57;;;;;;;;;;5026043;28;20080;-72
2022/10/30 05:10:17;;;;;;;36.47;21.70;;;;;;;;;;5008961;28;20038;-75
2022/10/30 05:12:44;;;;;;;43.63;26.05;;;;;;;;;;5029348;28;20517;-73
2022/10/30 05:15:13;;;;;;;30.75;15.95;;;;;;;;;;5024779;28;20390;-73
2022/10/30 05:17:40;;;;;;;36.88;15.32;;;;;;;;;;5020396;28;20041;-74
2022/10/30 05:20:07;;;;;;;33.00;14.57;;;;;;;;;;5031573;28;20053;-74
2022/10/30 05:22:33;;;;;;;26.40;13.90;;;;;;;;;;5024385;28;20080;-74
2022/10/30 05:24:59;;;;;;;31.50;14.43;;;;;;;;;;5031749;28;20440;-74
2022/10/30 05:27:25;;;;;;;34.20;14.48;;;;;;;;;;5025005;28;20029;-76
2022/10/30 05:29:51;;;;;;;36.20;13.52;;;;;;;;;;5026873;28;20064;-74
2022/10/30 05:32:17;;;;;;;26.67;14.00;;;;;;;;;;5027756;28;20033;-74
2022/10/30 05:34:43;;;;;;;28.70;13.85;;;;;;;;;;5027665;28;20036;-73
2022/10/30 05:37:09;;;;;;;26.83;14.05;;;;;;;;;;5026628;28;20036;-73
2022/10/30 05:39:35;;;;;;;27.58;14.13;;;;;;;;;;5031085;28;20029;-74
2022/10/30 05:42:01;;;;;;;29.55;14.10;;;;;;;;;;5042086;28;20040;-74
2022/10/30 05:44:27;;;;;;;28.52;13.82;;;;;;;;;;5024747;28;20026;-74
2022/10/30 05:46:53;;;;;;;31.98;16.15;;;;;;;;;;5030859;28;20037;-72
2022/10/30 05:49:19;;;;;;;36.85;14.15;;;;;;;;;;5029513;28;20029;-73
2022/10/30 05:51:46;;;;;;;26.17;14.75;;;;;;;;;;5022313;28;20093;-73
2022/10/30 05:54:12;;;;;;;33.53;16.10;;;;;;;;;;5023885;28;20064;-73
2022/10/30 05:56:38;;;;;;;33.20;15.57;;;;;;;;;;5024114;28;20397;-73
2022/10/30 05:59:04;;;;;;;33.42;16.52;;;;;;;;;;5029744;28;20034;-73
2022/10/30 06:01:30;;;;;;;35.17;16.58;;;;;;;;;;5022863;28;20025;-73
2022/10/30 06:03:57;;;;;;;33.33;14.10;;;;;;;;;;5032267;28;20091;-73
2022/10/30 06:06:23;;;;;;;36.97;16.50;;;;;;;;;;5031366;28;20026;-74
2022/10/30 06:08:49;;;;;;;33.90;15.32;;;;;;;;;;5031098;28;20033;-75
2022/10/30 06:11:15;;;;;;;28.67;15.55;;;;;;;;;;5021330;28;20026;-73
2022/10/30 06:13:41;;;;;;;37.08;15.23;;;;;;;;;;5036075;28;20056;-73
2022/10/30 06:16:07;;;;;;;28.70;15.63;;;;;;;;;;5006962;28;20172;-73
2022/10/30 06:18:33;;;;;;;32.00;14.80;;;;;;;;;;5030589;28;20026;-73
2022/10/30 06:20:59;;;;;;;32.03;16.55;;;;;;;;;;5025688;28;20057;-73
2022/10/30 06:23:25;;;;;;;31.08;15.90;;;;;;;;;;5028696;28;20037;-74
2022/10/30 06:25:51;;;;;;;32.30;16.42;;;;;;;;;;5022694;28;20033;-74
2022/10/30 06:28:17;;;;;;;31.42;18.95;;;;;;;;;;5030719;28;20164;-73
2022/10/30 06:30:43;;;;;;;41.72;19.25;;;;;;;;;;5031319;28;20034;-73
2022/10/30 06:33:09;;;;;;;31.58;16.38;;;;;;;;;;5021271;28;20037;-74
2022/10/30 06:35:35;;;;;;;32.35;17.00;;;;;;;;;;5024377;28;20033;-73
2022/10/30 06:38:03;;;;;;;36.60;14.68;;;;;;;;;;5021390;28;20459;-73
2022/10/30 06:40:29;;;;;;;33.35;15.68;;;;;;;;;;5013870;28;20052;-72
2022/10/30 06:42:55;;;;;;;33.35;17.27;;;;;;;;;;5026685;28;20037;-73
2022/10/30 06:45:22;;;;;;;29.88;14.98;;;;;;;;;;5023357;28;20041;-73
2022/10/30 06:47:49;;;;;;;42.63;19.20;;;;;;;;;;5019315;28;20668;-75
2022/10/30 06:50:16;;;;;;;32.28;17.35;;;;;;;;;;5018352;28;20117;-75
2022/10/30 06:52:42;;;;;;;32.22;16.88;;;;;;;;;;5029391;28;20050;-76
2022/10/30 06:55:09;;;;;;;37.00;16.20;;;;;;;;;;5030579;28;20391;-74
2022/10/30 06:57:36;;;;;;;38.42;16.90;;;;;;;;;;5027317;28;20116;-78
2022/10/30 07:00:03;;;;;;;36.78;16.27;;;;;;;;;;5025781;28;20113;-75
2022/10/30 07:02:29;;;;;;;32.22;15.93;;;;;;;;;;5024684;28;20100;-71
2022/10/30 07:04:55;;;;;;;34.13;17.02;;;;;;;;;;5028231;28;20025;-76
2022/10/30 07:07:21;;;;;;;39.88;17.27;;;;;;;;;;5033076;28;20037;-74
2022/10/30 07:09:47;;;;;;;29.98;16.70;;;;;;;;;;5012843;28;20041;-71
2022/10/30 07:12:13;;;;;;;29.85;16.02;;;;;;;;;;5022614;28;20040;-72
2022/10/30 07:14:39;;;;;;;29.83;16.13;;;;;;;;;;5024435;28;20061;-73
2022/10/30 07:17:05;;;;;;;34.25;14.93;;;;;;;;;;5024225;28;20033;-74
2022/10/30 07:19:31;;;;;;;30.20;16.75;;;;;;;;;;5021354;28;20779;-73
2022/10/30 07:21:57;;;;;;;36.85;16.65;;;;;;;;;;5028312;28;20026;-76
2022/10/30 07:24:23;;;;;;;30.98;15.35;;;;;;;;;;5017164;28;20080;-74
2022/10/30 07:26:49;;;;;;;30.77;17.67;;;;;;;;;;5027242;28;20033;-71
2022/10/30 07:29:15;;;;;;;39.55;25.52;;;;;;;;;;5018389;28;20132;-71
2022/10/30 07:31:42;;;;;;;32.03;15.57;;;;;;;;;;5025950;28;20069;-72
2022/10/30 07:34:08;;;;;;;29.15;14.85;;;;;;;;;;5006711;28;20033;-72
2022/10/30 07:36:34;;;;;;;31.98;16.50;;;;;;;;;;5026011;28;20033;-69
2022/10/30 07:39:00;;;;;;;37.08;15.13;;;;;;;;;;5028164;28;20045;-72
2022/10/30 07:41:26;;;;;;;34.92;15.30;;;;;;;;;;5019382;28;20030;-71
2022/10/30 07:43:52;;;;;;;33.20;15.82;;;;;;;;;;5028794;28;20038;-71
2022/10/30 07:46:18;;;;;;;36.60;15.98;;;;;;;;;;5037105;28;20037;-75
2022/10/30 07:48:45;;;;;;;33.08;15.13;;;;;;;;;;5027918;28;20026;-72
2022/10/30 07:51:13;;;;;;;24.80;13.95;;;;;;;;;;5012522;28;20026;-71
2022/10/30 07:53:40;;;;;;;25.95;14.85;;;;;;;;;;5023550;28;20068;-73
2022/10/30 07:56:06;;;;;;;39.83;16.02;;;;;;;;;;5039163;28;20045;-72
2022/10/30 07:58:32;;;;;;;29.55;14.52;;;;;;;;;;5053402;28;20397;-71
2022/10/30 08:00:58;;;;;;;27.42;14.10;;;;;;;;;;5035456;28;20026;-75
2022/10/30 08:03:24;;;;;;;26.63;13.98;;;;;;;;;;5031471;28;20059;-72
2022/10/30 08:05:50;;;;;;;29.88;14.50;;;;;;;;;;5029316;28;20095;-71
2022/10/30 08:08:16;;;;;;;49.88;16.15;;;;;;;;;;5029537;28;20026;-72
2022/10/30 08:10:42;;;;;;;34.30;15.65;;;;;;;;;;5024343;28;20040;-72
2022/10/30 08:13:08;;;;;;;24.15;13.73;;;;;;;;;;5028969;28;20045;-71
2022/10/30 08:15:34;;;;;;;28.98;13.80;;;;;;;;;;5032590;28;20021;-71
2022/10/30 08:18:00;;;;;;;27.05;16.10;;;;;;;;;;5027189;28;20088;-73
2022/10/30 08:20:26;;;;;;;33.45;14.82;;;;;;;;;;5032525;28;20112;-72
2022/10/30 08:22:54;;;;;;;24.45;14.40;;;;;;;;;;5029543;28;20030;-72
2022/10/30 08:25:22;;;;;;;25.23;13.98;;;;;;;;;;5032810;28;20033;-73
2022/10/30 08:27:58;;;;;;;37.83;14.60;;;;;;;;;;5033773;28;20091;-73
2022/10/30 08:30:25;;;;;;;27.45;14.93;;;;;;;;;;5034477;28;20397;-71
2022/10/30 08:32:51;;;;;;;34.05;15.10;;;;;;;;;;5032670;28;20370;-71
2022/10/30 08:35:18;;;;;;;31.20;14.35;;;;;;;;;;5031258;28;20373;-71
2022/10/30 08:37:45;;;;;;;29.77;14.57;;;;;;;;;;5034340;28;20429;-75
2022/10/30 08:40:11;;;;;;;29.98;14.35;;;;;;;;;;5023061;28;20052;-73
2022/10/30 08:42:37;;;;;;;25.98;14.95;;;;;;;;;;5031921;28;20494;-72
2022/10/30 08:45:04;;;;;;;31.30;15.05;;;;;;;;;;5046951;28;20036;-72
2022/10/30 08:47:30;;;;;;;24.17;14.63;;;;;;;;;;5025602;28;20453;-73
2022/10/30 08:49:56;;;;;;;26.48;14.48;;;;;;;;;;5030516;28;20034;-71
2022/10/30 08:52:22;;;;;;;27.42;14.65;;;;;;;;;;5015396;28;20041;-71
2022/10/30 08:54:48;;;;;;;28.85;13.48;;;;;;;;;;5031312;28;20034;-71
2022/10/30 08:57:15;;;;;;;31.00;15.70;;;;;;;;;;5027804;28;20018;-72
2022/10/30 08:59:42;;;;;;;34.72;14.25;;;;;;;;;;5032421;28;20033;-73
2022/10/30 09:02:08;;;;;;;31.92;14.45;;;;;;;;;;5012177;28;20025;-72
2022/10/30 09:04:35;;;;;;;26.65;14.18;;;;;;;;;;5032611;28;20036;-73
2022/10/30 09:07:01;;;;;;;27.17;14.57;;;;;;;;;;5033679;28;20042;-71
2022/10/30 09:09:28;;;;;;;24.92;13.13;;;;;;;;;;5020926;28;20041;-72
2022/10/30 09:11:54;;;;;;;25.05;13.98;;;;;;;;;;5032018;28;20488;-71
2022/10/30 09:14:20;;;;;;;28.17;13.73;;;;;;;;;;5027567;28;20050;-73
2022/10/30 09:16:46;;;;;;;22.95;13.55;;;;;;;;;;5024212;28;20048;-71
2022/10/30 09:19:12;;;;;;;27.63;14.02;;;;;;;;;;5028296;28;20096;-72
2022/10/30 09:21:38;;;;;;;30.20;14.00;;;;;;;;;;5024525;28;20053;-73
2022/10/30 09:24:04;;;;;;;34.92;13.50;;;;;;;;;;5027316;28;20103;-72
2022/10/30 09:26:30;;;;;;;30.17;12.27;;;;;;;;;;5031033;28;20049;-71
2022/10/30 09:28:57;;;;;;;24.55;13.32;;;;;;;;;;5032347;28;20037;-72
2022/10/30 09:31:23;;;;;;;28.90;12.85;;;;;;;;;;5030790;28;20038;-72
2022/10/30 09:33:49;;;;;;;18.98;11.82;;;;;;;;;;5032846;28;20042;-72
2022/10/30 09:36:15;;;;;;;24.08;12.40;;;;;;;;;;5043371;28;20040;-71
2022/10/30 09:38:42;;;;;;;24.98;12.05;;;;;;;;;;5035547;28;20146;-72
2022/10/30 09:41:17;;;;;;;19.08;11.60;;;;;;;;;;5031280;28;20041;-71
2022/10/30 09:43:43;;;;;;;24.98;12.45;;;;;;;;;;5031629;28;20099;-72
2022/10/30 09:46:22;;;;;;;21.73;11.52;;;;;;;;;;5030175;28;20462;-72
2022/10/30 09:49:10;;;;;;;26.75;12.30;;;;;;;;;;5031619;28;20367;-75
2022/10/30 09:51:42;;;;;;;33.53;12.70;;;;;;;;;;5022470;28;20041;-73
2022/10/30 09:54:09;;;;;;;27.15;11.48;;;;;;;;;;5036687;28;20037;-71
2022/10/30 09:56:55;;;;;;;32.00;12.52;;;;;;;;;;5030943;28;20028;-71
2022/10/30 09:59:29;;;;;;;21.92;11.13;;;;;;;;;;5014104;28;20026;-71
2022/10/30 10:02:02;;;;;;;24.63;11.77;;;;;;;;;;5030369;28;20064;-71
2022/10/30 10:04:32;;;;;;;21.52;11.15;;;;;;;;;;5030765;28;20029;-72
2022/10/30 10:07:05;;;;;;;28.60;11.63;;;;;;;;;;5030511;28;20033;-72
2022/10/30 10:09:33;;;;;;;22.42;11.93;;;;;;;;;;5029021;28;20474;-72
2022/10/30 10:12:20;;;;;;;21.40;10.25;;;;;;;;;;5028739;28;20168;-72
2022/10/30 10:14:47;;;;;;;26.40;11.02;;;;;;;;;;5030723;28;20061;-73
2022/10/30 10:17:16;;;;;;;25.15;9.48;;;;;;;;;;5013423;28;20427;-78
2022/10/30 10:20:04;;;;;;;24.40;10.32;;;;;;;;;;5026764;28;20058;-72
2022/10/30 10:22:38;;;;;;;24.73;9.48;;;;;;;;;;5011272;28;20501;-72
2022/10/30 10:25:08;;;;;;;23.42;9.52;;;;;;;;;;5002343;28;20037;-72
2022/10/30 10:27:53;;;;;;;20.30;10.00;;;;;;;;;;5006367;28;20073;-72
2022/10/30 10:30:19;;;;;;;31.55;9.32;;;;;;;;;;5006867;28;20033;-74
2022/10/30 10:32:51;;;;;;;20.00;8.73;;;;;;;;;;5011332;28;20064;-72
2022/10/30 10:35:36;;;;;;;23.15;9.10;;;;;;;;;;5010794;28;20521;-72
2022/10/30 10:38:05;;;;;;;24.42;9.02;;;;;;;;;;5007443;28;20053;-76
2022/10/30 10:40:40;;;;;;;21.95;8.25;;;;;;;;;;5009962;28;20041;-72
2022/10/30 10:43:06;;;;;;;22.52;10.07;;;;;;;;;;5001669;28;20038;-73
2022/10/30 10:45:38;;;;;;;14.70;8.38;;;;;;;;;;5008934;28;20544;-71
2022/10/30 10:48:04;;;;;;;;;;;;;;;;;;5010270;28;20360;-74
2022/10/30 10:50:33;;;;;;;22.23;9.02;;;;;;;;;;5003949;28;19921;-72
2022/10/30 10:53:18;;;;;;;21.85;9.18;;;;;;;;;;5015672;28;20021;-72
2022/10/30 10:55:47;;;;;;;18.42;8.57;;;;;;;;;;5017548;28;20030;-73
2022/10/30 10:58:23;;;;;;;17.52;8.18;;;;;;;;;;5008335;28;20533;-71
2022/10/30 11:00:49;;;;;;;21.52;8.20;;;;;;;;;;5011385;28;20077;-73
2022/10/30 11:03:38;;;;;;;18.77;9.35;;;;;;;;;;5006397;28;20033;-72
2022/10/30 11:06:18;;;;;;;17.60;8.55;;;;;;;;;;4995554;28;20046;-72
2022/10/30 11:08:44;;;;;;;25.13;8.40;;;;;;;;;;5008726;28;20068;-72
2022/10/30 11:11:10;;;;;;;15.07;7.65;;;;;;;;;;5010196;28;20033;-71
2022/10/30 11:13:38;;;;;;;18.08;8.48;;;;;;;;;;5010035;28;20038;-71
2022/10/30 11:16:13;;;;;;;18.83;8.20;;;;;;;;;;5004986;28;20108;-73
2022/10/30 11:18:40;;;;;;;23.85;8.27;;;;;;;;;;5011192;28;20229;-73
2022/10/30 11:21:10;;;;;;;18.10;7.88;;;;;;;;;;5020628;28;20046;-73
2022/10/30 11:23:40;;;;;;;18.45;6.97;;;;;;;;;;5033728;28;20065;-73
2022/10/30 11:26:19;;;;;;;20.92;7.70;;;;;;;;;;5024930;28;20057;-72
2022/10/30 11:28:45;;;;;;;22.27;7.05;;;;;;;;;;5034681;28;20398;-73
2022/10/30 11:31:27;;;;;;;17.05;7.15;;;;;;;;;;5027432;28;20034;-72
2022/10/30 11:33:53;;;;;;;20.15;7.45;;;;;;;;;;5047454;28;20161;-73
2022/10/30 11:36:23;;;;;;;16.05;6.80;;;;;;;;;;5028666;28;20096;-72
2022/10/30 11:38:49;;;;;;;16.02;7.05;;;;;;;;;;5030363;28;20063;-73
2022/10/30 11:41:16;;;;;;;20.70;7.22;;;;;;;;;;5044859;28;20075;-71
2022/10/30 11:43:42;;;;;;;17.80;7.13;;;;;;;;;;5034644;28;20069;-72
2022/10/30 11:46:11;;;;;;;20.15;6.97;;;;;;;;;;5033961;28;20117;-72
2022/10/30 11:48:41;;;;;;;16.90;7.22;;;;;;;;;;5030129;28;20026;-76
2022/10/30 11:51:07;;;;;;;16.67;6.47;;;;;;;;;;5029489;28;20060;-76
2022/10/30 11:53:37;;;;;;;14.52;6.65;;;;;;;;;;5041964;28;20072;-73
2022/10/30 11:56:10;;;;;;;15.65;6.70;;;;;;;;;;5040164;28;20482;-72
2022/10/30 11:58:38;;;;;;;20.60;7.45;;;;;;;;;;5034102;28;20038;-72
2022/10/30 12:01:06;;;;;;;18.83;6.78;;;;;;;;;;5014439;28;20030;-72
2022/10/30 12:03:37;;;;;;;17.65;7.93;;;;;;;;;;5032022;28;20069;-72
2022/10/30 12:06:07;;;;;;;20.75;7.30;;;;;;;;;;5028687;28;20116;-74
2022/10/30 12:08:33;;;;;;;15.95;6.85;;;;;;;;;;5029218;28;20363;-72
2022/10/30 12:11:00;;;;;;;21.67;7.18;;;;;;;;;;5037441;28;20116;-72
2022/10/30 12:13:27;;;;;;;20.92;8.25;;;;;;;;;;5028789;28;20029;-72
2022/10/30 12:16:12;;;;;;;21.88;7.97;;;;;;;;;;5031676;28;20076;-77
2022/10/30 12:18:38;;;;;;;21.58;7.88;;;;;;;;;;5033724;28;20064;-74
2022/10/30 12:21:04;;;;;;;23.08;7.85;;;;;;;;;;5032001;28;20049;-72
2022/10/30 12:23:31;;;;;;;20.70;8.10;;;;;;;;;;5032281;28;20117;-72
2022/10/30 12:25:59;;;;;;;19.23;7.82;;;;;;;;;;5024252;28;20037;-71
2022/10/30 12:28:29;;;;;;;14.43;8.43;;;;;;;;;;5032693;28;20080;-72
2022/10/30 12:31:14;;;;;;;19.20;7.95;;;;;;;;;;5031780;28;20021;-72
2022/10/30 12:33:40;;;;;;;21.02;8.68;;;;;;;;;;5025595;28;20071;-77
2022/10/30 12:36:08;;;;;;;19.25;7.25;;;;;;;;;;5013724;28;20025;-72
2022/10/30 12:38:41;;;;;;;19.13;7.85;;;;;;;;;;5033084;28;20033;-72
2022/10/30 12:41:28;;;;;;;20.20;8.60;;;;;;;;;;5028285;28;20034;-72
2022/10/30 12:44:03;;;;;;;27.35;8.23;;;;;;;;;;5032308;28;20033;-71
2022/10/30 12:46:29;;;;;;;26.70;9.15;;;;;;;;;;5027353;28;20037;-71
2022/10/30 12:49:01;;;;;;;22.10;10.57;;;;;;;;;;5030424;28;20025;-72
2022/10/30 12:51:27;;;;;;;;;;;;;;;;;;5026160;28;20083;-74
2022/10/30 12:53:57;;;;;;;24.30;10.35;;;;;;;;;;5045476;28;19916;-71
2022/10/30 12:56:26;;;;;;;21.40;9.65;;;;;;;;;;5039714;28;20375;-72
2022/10/30 12:59:04;;;;;;;21.80;10.02;;;;;;;;;;5031760;28;20031;-72
2022/10/30 13:01:44;;;;;;;21.42;9.68;;;;;;;;;;5022904;28;20116;-72
2022/10/30 13:04:16;;;;;;;20.38;9.90;;;;;;;;;;5023612;28;20061;-76
2022/10/30 13:06:48;;;;;;;22.13;10.40;;;;;;;;;;5032952;28;20035;-73
2022/10/30 13:09:18;;;;;;;26.75;9.48;;;;;;;;;;5031472;28;20040;-73
2022/10/30 13:11:53;;;;;;;16.67;9.15;;;;;;;;;;5033010;28;20034;-72
2022/10/30 13:14:21;;;;;;;20.95;9.80;;;;;;;;;;5026779;28;20033;-78
2022/10/30 13:16:51;;;;;;;26.45;10.48;;;;;;;;;;5019523;28;20356;-73
2022/10/30 13:19:17;;;;;;;27.45;10.85;;;;;;;;;;5025541;28;20037;-73
2022/10/30 13:21:55;;;;;;;21.90;9.38;;;;;;;;;;5031454;28;20025;-72
2022/10/30 13:24:26;;;;;;;30.05;9.88;;;;;;;;;;5010941;28;20100;-72
2022/10/30 13:27:16;;;;;;;22.38;9.07;;;;;;;;;;5020270;28;20105;-72
2022/10/30 13:29:45;;;;;;;20.38;9.05;;;;;;;;;;5046055;28;20025;-74
2022/10/30 13:32:38;;;;;;;25.38;10.77;;;;;;;;;;5028516;28;20083;-73
2022/10/30 13:35:26;;;;;;;25.20;10.05;;;;;;;;;;5031554;28;20032;-71
2022/10/30 13:38:03;;;;;;;20.98;9.60;;;;;;;;;;5034680;28;20390;-72
2022/10/30 13:40:35;;;;;;;26.77;10.73;;;;;;;;;;5022645;28;20025;-72
2022/10/30 13:43:14;;;;;;;19.23;9.43;;;;;;;;;;5029732;28;20087;-71
2022/10/30 13:45:49;;;;;;;22.75;9.88;;;;;;;;;;5007286;28;20264;-72
2022/10/30 13:48:15;;;;;;;21.15;9.95;;;;;;;;;;5023421;28;20033;-71
2022/10/30 13:51:00;;;;;;;20.73;9.50;;;;;;;;;;5026949;28;20493;-71
2022/10/30 13:53:28;;;;;;;27.52;10.63;;;;;;;;;;5036948;28;20119;-72
2022/10/30 13:55:55;;;;;;;26.80;12.02;;;;;;;;;;5047004;28;20103;-77
2022/10/30 13:58:40;;;;;;;17.02;8.90;;;;;;;;;;5029221;28;20534;-72
2022/10/30 14:01:10;;;;;;;21.45;11.38;;;;;;;;;;5024128;28;20105;-74
2022/10/30 14:03:50;;;;;;;19.48;8.43;;;;;;;;;;5022605;28;20025;-71
2022/10/30 14:06:35;;;;;;;28.73;10.63;;;;;;;;;;5029944;28;20064;-72
2022/10/30 14:09:05;;;;;;;22.80;9.55;;;;;;;;;;5030798;28;20413;-73
2022/10/30 14:11:31;;;;;;;21.05;9.38;;;;;;;;;;5031510;28;20037;-74
2022/10/30 14:14:02;;;;;;;20.17;8.55;;;;;;;;;;5025143;28;20076;-73
2022/10/30 14:16:45;;;;;;;25.17;9.48;;;;;;;;;;5029496;28;20113;-75
2022/10/30 14:19:17;;;;;;;20.00;8.27;;;;;;;;;;5015765;28;20048;-72
2022/10/30 14:21:57;;;;;;;17.73;8.05;;;;;;;;;;5020128;28;20091;-73
2022/10/30 14:24:24;;;;;;;21.30;8.35;;;;;;;;;;5025062;28;20053;-73
2022/10/30 14:26:51;;;;;;;24.60;7.75;;;;;;;;;;5027206;28;20052;-73
2022/10/30 14:29:33;;;;;;;20.65;7.00;;;;;;;;;;5032002;28;20474;-73